createdAt,value
2023-11-14T00:02:02.790Z,2.97
2023-11-14T00:04:29.739Z,2.52
2023-11-14T00:06:56.587Z,2.83
2023-11-14T00:09:24.033Z,2.64
2023-11-14T00:11:50.893Z,2.60
2023-11-14T00:14:17.698Z,2.50
2023-11-14T00:16:44.585Z,2.69
2023-11-14T00:19:11.415Z,2.73
2023-11-14T00:21:38.219Z,2.55
2023-11-14T00:24:05.555Z,2.52
2023-11-14T00:26:32.274Z,2.46
2023-11-14T00:28:59.130Z,2.45
2023-11-14T00:31:26.022Z,2.43
2023-11-14T00:33:53.292Z,2.30
2023-11-14T00:36:20.449Z,2.30
2023-11-14T00:38:47.241Z,2.18
2023-11-14T00:41:14.430Z,2.23
2023-11-14T00:43:41.263Z,2.38
2023-11-14T00:46:11.245Z,1.91
2023-11-14T00:49:16.011Z,2.05
2023-11-14T00:51:42.841Z,2.03
2023-11-14T00:54:09.663Z,1.89
2023-11-14T00:56:36.507Z,1.84
2023-11-14T00:59:03.363Z,1.64
2023-11-14T01:01:30.345Z,1.85
2023-11-14T01:04:03.540Z,1.76
2023-11-14T01:06:30.336Z,1.82
2023-11-14T01:08:57.079Z,1.74
2023-11-14T01:11:24.222Z,1.67
2023-11-14T01:13:51.109Z,1.53
2023-11-14T01:16:17.939Z,1.67
2023-11-14T01:18:44.761Z,1.41
2023-11-14T01:21:18.460Z,1.42
2023-11-14T01:23:45.539Z,1.40
2023-11-14T01:26:12.376Z,1.23
2023-11-14T01:29:12.562Z,1.20
2023-11-14T01:31:39.354Z,1.02
2023-11-14T01:34:06.634Z,1.10
2023-11-14T01:36:33.443Z,1.15
2023-11-14T01:39:00.245Z,1.26
2023-11-14T01:41:26.999Z,1.17
2023-11-14T01:43:53.826Z,1.12
2023-11-14T01:46:20.979Z,1.26
2023-11-14T01:48:48.627Z,1.07
2023-11-14T01:51:16.186Z,1.10
2023-11-14T01:53:44.079Z,1.08
2023-11-14T01:56:11.216Z,1.05
2023-11-14T01:58:38.038Z,1.06
2023-11-14T02:01:05.089Z,1.00
2023-11-14T02:03:34.940Z,1.04
2023-11-14T02:06:02.167Z,1.01
2023-11-14T02:08:30.586Z,0.87
2023-11-14T02:10:57.676Z,0.93
2023-11-14T02:13:24.560Z,0.85
2023-11-14T02:15:51.405Z,0.81
2023-11-14T02:18:19.007Z,0.83
2023-11-14T02:20:46.231Z,0.86
2023-11-14T02:23:15.220Z,0.72
2023-11-14T02:25:41.962Z,0.85
2023-11-14T02:28:19.852Z,0.83
2023-11-14T02:30:46.665Z,0.74
2023-11-14T02:33:13.414Z,0.82
2023-11-14T02:35:40.147Z,0.83
2023-11-14T02:38:07.283Z,0.77
2023-11-14T02:40:34.192Z,0.78
2023-11-14T02:43:01.078Z,0.74
2023-11-14T02:45:27.883Z,0.72
2023-11-14T02:47:55.040Z,0.58
2023-11-14T02:50:46.727Z,0.63
2023-11-14T02:53:13.494Z,0.68
2023-11-14T02:56:16.461Z,0.71
2023-11-14T02:58:43.221Z,0.74
2023-11-14T03:01:10.001Z,0.68
2023-11-14T03:03:37.421Z,0.73
2023-11-14T03:06:05.692Z,0.61
2023-11-14T03:08:33.327Z,0.65
2023-11-14T03:11:00.587Z,0.68
2023-11-14T03:13:27.462Z,0.62
2023-11-14T03:15:54.527Z,0.76
2023-11-14T03:18:21.282Z,0.75
2023-11-14T03:20:48.087Z,0.80
2023-11-14T03:23:14.912Z,0.77
2023-11-14T03:25:41.760Z,0.73
2023-11-14T03:28:08.573Z,0.69
2023-11-14T03:30:35.307Z,0.75
2023-11-14T03:33:02.277Z,0.70
2023-11-14T03:35:29.161Z,0.73
2023-11-14T03:37:56.047Z,0.72
2023-11-14T03:40:23.920Z,0.65
2023-11-14T03:42:50.634Z,0.70
2023-11-14T03:45:17.446Z,0.72
2023-11-14T03:47:44.208Z,0.70
2023-11-14T03:50:11.175Z,0.71
2023-11-14T03:52:38.916Z,0.76
2023-11-14T03:55:06.272Z,0.72
2023-11-14T03:57:33.312Z,0.65
2023-11-14T04:00:00.312Z,0.64
2023-11-14T04:02:27.461Z,0.52
2023-11-14T04:04:54.635Z,0.60
2023-11-14T04:07:21.421Z,0.64
2023-11-14T04:09:48.194Z,0.68
2023-11-14T04:12:15.349Z,0.60
2023-11-14T04:14:43.530Z,0.63
2023-11-14T04:17:10.648Z,0.59
2023-11-14T04:19:38.824Z,0.57
2023-11-14T04:22:05.674Z,0.61
2023-11-14T04:24:33.328Z,0.53
2023-11-14T04:27:00.760Z,0.71
2023-11-14T04:29:27.530Z,0.59
2023-11-14T04:31:54.466Z,0.60
2023-11-14T04:34:21.638Z,0.70
2023-11-14T04:36:48.434Z,0.71
2023-11-14T04:39:16.011Z,0.71
2023-11-14T04:41:43.019Z,0.73
2023-11-14T04:44:10.941Z,0.83
2023-11-14T04:46:37.809Z,0.72
2023-11-14T04:49:04.964Z,0.78
2023-11-14T04:51:31.875Z,0.75
2023-11-14T04:53:58.668Z,0.75
2023-11-14T04:56:26.964Z,0.73
2023-11-14T04:58:53.989Z,0.77
2023-11-14T05:01:20.745Z,0.79
2023-11-14T05:03:48.061Z,0.77
2023-11-14T05:06:15.146Z,0.90
2023-11-14T05:08:41.923Z,0.85
2023-11-14T05:11:08.883Z,0.80
2023-11-14T05:13:35.719Z,0.84
2023-11-14T05:16:11.228Z,0.78
2023-11-14T05:18:46.345Z,0.77
2023-11-14T05:21:13.142Z,0.81
2023-11-14T05:23:40.306Z,0.83
2023-11-14T05:26:07.096Z,0.75
2023-11-14T05:28:34.169Z,0.84
2023-11-14T05:31:01.005Z,0.83
2023-11-14T05:33:28.152Z,0.76
2023-11-14T05:35:54.952Z,0.80
2023-11-14T05:38:24.599Z,0.81
2023-11-14T05:40:51.878Z,0.66
2023-11-14T05:43:19.231Z,0.65
2023-11-14T05:45:46.299Z,0.64
2023-11-14T05:48:13.022Z,0.50
2023-11-14T05:50:39.866Z,0.49
2023-11-14T05:53:06.672Z,0.51
2023-11-14T05:55:35.879Z,0.61
2023-11-14T05:58:03.043Z,0.60
2023-11-14T06:00:31.482Z,0.52
2023-11-14T06:02:58.240Z,0.52
2023-11-14T06:05:25.808Z,0.59
2023-11-14T06:07:53.059Z,0.55
2023-11-14T06:10:21.717Z,0.42
2023-11-14T06:12:48.877Z,0.38
2023-11-14T06:15:16.037Z,0.43
2023-11-14T06:17:43.211Z,0.27
2023-11-14T06:20:10.494Z,0.32
2023-11-14T06:22:37.672Z,0.33
2023-11-14T06:25:06.019Z,0.46
2023-11-14T06:27:33.467Z,0.41
2023-11-14T06:30:03.342Z,0.37
2023-11-14T06:32:32.989Z,0.32
2023-11-14T06:34:59.830Z,0.32
2023-11-14T06:37:27.364Z,0.26
2023-11-14T06:39:54.114Z,0.33
2023-11-14T06:42:21.195Z,0.28
2023-11-14T06:44:48.040Z,0.50
2023-11-14T06:47:14.795Z,0.93
2023-11-14T06:49:41.654Z,2.02
2023-11-14T06:52:11.446Z,0.67
2023-11-14T06:54:38.834Z,1.10
2023-11-14T06:57:06.315Z,1.61
2023-11-14T06:59:33.649Z,7.33
2023-11-14T07:02:00.507Z,1.76
2023-11-14T07:04:27.359Z,0.90
2023-11-14T07:06:54.428Z,0.76
2023-11-14T07:09:22.958Z,1.59
2023-11-14T07:11:50.188Z,2.95
2023-11-14T07:14:17.075Z,2.89
2023-11-14T07:16:43.901Z,4.83
2023-11-14T07:19:10.747Z,7.56
2023-11-14T07:21:37.889Z,4.24
2023-11-14T07:24:06.144Z,3.93
2023-11-14T07:26:33.276Z,2.70
2023-11-14T07:29:01.165Z,2.20
2023-11-14T07:31:28.440Z,3.40
2023-11-14T07:33:55.199Z,2.59
2023-11-14T07:36:22.293Z,1.66
2023-11-14T07:39:28.135Z,1.39
2023-11-14T07:41:56.046Z,1.58
2023-11-14T07:44:22.834Z,1.97
2023-11-14T07:46:50.027Z,2.08
2023-11-14T07:49:17.358Z,2.96
2023-11-14T07:51:44.487Z,1.80
2023-11-14T07:54:11.223Z,1.37
2023-11-14T07:56:41.080Z,1.35
2023-11-14T07:59:07.836Z,1.55
2023-11-14T08:01:34.644Z,1.73
2023-11-14T08:04:01.510Z,2.78
2023-11-14T08:06:28.390Z,2.62
2023-11-14T08:08:55.194Z,2.02
2023-11-14T08:11:21.970Z,1.87
2023-11-14T08:13:48.877Z,1.31
2023-11-14T08:16:15.721Z,0.82
2023-11-14T08:18:42.836Z,0.65
2023-11-14T08:21:09.975Z,0.58
2023-11-14T08:23:37.024Z,1.31
2023-11-14T08:26:03.892Z,2.37
2023-11-14T08:28:30.959Z,1.28
2023-11-14T08:30:57.749Z,1.34
2023-11-14T08:33:24.545Z,1.60
2023-11-14T08:35:51.716Z,1.14
2023-11-14T08:38:21.644Z,1.17
2023-11-14T08:40:49.074Z,1.02
2023-11-14T08:43:16.277Z,1.15
2023-11-14T08:45:43.039Z,0.97
2023-11-14T08:48:10.011Z,0.99
2023-11-14T08:50:37.382Z,1.01
2023-11-14T08:53:05.401Z,0.76
2023-11-14T08:55:32.933Z,1.11
2023-11-14T08:58:00.046Z,1.10
2023-11-14T09:00:26.781Z,0.94
2023-11-14T09:02:53.650Z,0.84
2023-11-14T09:05:20.499Z,1.21
2023-11-14T09:07:53.864Z,1.16
2023-11-14T09:10:20.714Z,1.03
2023-11-14T09:12:47.887Z,0.79
2023-11-14T09:15:15.114Z,0.79
2023-11-14T09:17:45.952Z,0.78
2023-11-14T09:20:15.642Z,0.80
2023-11-14T09:22:42.498Z,0.75
2023-11-14T09:25:09.658Z,0.80
2023-11-14T09:27:42.704Z,0.77
2023-11-14T09:30:09.798Z,0.64
2023-11-14T09:32:36.849Z,0.53
2023-11-14T09:35:03.788Z,0.52
2023-11-14T09:37:30.923Z,0.52
2023-11-14T09:39:57.721Z,0.38
2023-11-14T09:42:25.049Z,0.40
2023-11-14T09:44:52.278Z,0.41
2023-11-14T09:47:19.237Z,0.40
2023-11-14T09:49:46.166Z,0.43
2023-11-14T09:52:13.534Z,0.43
2023-11-14T09:54:43.271Z,0.35
2023-11-14T09:57:10.621Z,0.34
2023-11-14T09:59:37.413Z,0.63
2023-11-14T10:02:04.575Z,0.52
2023-11-14T10:04:31.682Z,0.63
2023-11-14T10:06:58.421Z,0.57
2023-11-14T10:09:26.610Z,0.56
2023-11-14T10:12:12.526Z,0.57
2023-11-14T10:14:46.438Z,0.72
2023-11-14T10:17:16.151Z,0.91
2023-11-14T10:19:59.789Z,0.81
2023-11-14T10:22:27.257Z,1.24
2023-11-14T10:24:54.354Z,0.58
2023-11-14T10:27:34.015Z,0.46
2023-11-14T10:30:01.293Z,0.59
2023-11-14T10:33:08.974Z,0.84
2023-11-14T10:35:36.643Z,1.43
2023-11-14T10:38:20.735Z,1.83
2023-11-14T10:40:49.401Z,1.77
2023-11-14T10:43:32.594Z,2.19
2023-11-14T10:46:13.076Z,2.07
2023-11-14T10:48:39.815Z,1.77
2023-11-14T10:51:07.240Z,1.20
2023-11-14T10:53:34.220Z,1.50
2023-11-14T10:56:02.285Z,2.24
2023-11-14T10:58:29.039Z,1.70
2023-11-14T11:00:57.308Z,1.85
2023-11-14T11:03:24.363Z,1.58
2023-11-14T11:05:51.147Z,1.28
2023-11-14T11:08:17.934Z,1.13
2023-11-14T11:10:44.821Z,1.15
2023-11-14T11:13:13.896Z,1.05
2023-11-14T11:16:07.166Z,1.15
2023-11-14T11:18:34.907Z,0.98
2023-11-14T11:21:11.760Z,0.93
2023-11-14T11:24:04.356Z,0.90
2023-11-14T11:26:31.188Z,0.72
2023-11-14T11:28:57.994Z,1.04
2023-11-14T11:31:25.415Z,0.90
2023-11-14T11:33:52.950Z,0.79
2023-11-14T11:36:23.941Z,0.74
2023-11-14T11:39:10.841Z,0.76
2023-11-14T11:41:55.245Z,0.56
2023-11-14T11:44:22.053Z,0.53
2023-11-14T11:46:49.133Z,0.34
2023-11-14T11:49:16.124Z,0.63
2023-11-14T11:51:46.141Z,0.72
2023-11-14T11:54:28.491Z,0.54
2023-11-14T11:57:10.406Z,0.76
2023-11-14T11:59:43.530Z,0.92
2023-11-14T12:02:20.530Z,0.75
2023-11-14T12:04:47.686Z,2.38
2023-11-14T12:07:14.580Z,4.63
2023-11-14T12:09:42.585Z,4.60
2023-11-14T12:12:09.348Z,3.79
2023-11-14T12:14:36.128Z,4.35
2023-11-14T12:17:03.367Z,4.89
2023-11-14T12:19:30.186Z,4.39
2023-11-14T12:21:57.438Z,4.49
2023-11-14T12:24:25.341Z,6.30
2023-11-14T12:26:52.078Z,4.91
2023-11-14T12:33:05.809Z,6.00
2023-11-14T12:35:52.177Z,6.31
2023-11-14T12:38:33.080Z,6.01
2023-11-14T12:41:28.152Z,4.64
2023-11-14T12:44:06.213Z,3.18
2023-11-14T12:46:36.206Z,2.27
2023-11-14T12:49:19.180Z,1.67
2023-11-14T12:51:50.122Z,1.43
2023-11-14T12:54:18.180Z,1.18
2023-11-14T12:56:45.316Z,1.42
2023-11-14T12:59:12.178Z,1.34
2023-11-14T13:01:39.614Z,1.62
2023-11-14T13:04:12.134Z,2.07
2023-11-14T13:06:41.467Z,1.82
2023-11-14T13:09:08.387Z,1.79
2023-11-14T13:11:35.773Z,1.81
2023-11-14T13:14:02.838Z,1.85
2023-11-14T13:16:29.672Z,1.62
2023-11-14T13:19:06.815Z,1.60
2023-11-14T13:21:33.625Z,1.35
2023-11-14T13:24:00.623Z,1.08
2023-11-14T13:26:27.891Z,1.13
2023-11-14T13:28:54.728Z,1.09
2023-11-14T13:31:21.910Z,1.01
2023-11-14T13:33:48.818Z,1.10
2023-11-14T13:36:16.134Z,1.97
2023-11-14T13:38:43.424Z,2.51
2023-11-14T13:43:40.595Z,3.25
2023-11-14T13:46:13.696Z,2.44
2023-11-14T13:48:46.853Z,6.51
2023-11-14T13:51:13.598Z,5.78
2023-11-14T13:53:40.520Z,5.36
2023-11-14T13:56:10.363Z,6.58
2023-11-14T13:58:37.194Z,4.25
2023-11-14T14:01:05.171Z,2.58
2023-11-14T14:03:31.982Z,2.35
2023-11-14T14:05:59.580Z,2.05
2023-11-14T14:08:26.419Z,2.24
2023-11-14T14:10:53.251Z,2.18
2023-11-14T14:13:20.079Z,1.19
2023-11-14T14:15:46.832Z,2.02
2023-11-14T14:18:13.655Z,3.21
2023-11-14T14:20:41.102Z,3.25
2023-11-14T14:23:13.766Z,4.11
2023-11-14T14:25:40.529Z,5.21
2023-11-14T14:28:07.667Z,5.85
2023-11-14T14:30:34.682Z,6.25
2023-11-14T14:33:01.486Z,5.94
2023-11-14T14:35:28.381Z,6.70
2023-11-14T14:37:55.304Z,9.35
2023-11-14T14:40:22.241Z,7.62
2023-11-14T14:42:49.059Z,9.08
2023-11-14T14:45:16.318Z,7.65
2023-11-14T14:47:43.231Z,10.56
2023-11-14T14:50:10.557Z,10.37
2023-11-14T14:52:38.816Z,8.36
2023-11-14T14:55:06.039Z,6.42
2023-11-14T14:57:32.846Z,2.15
2023-11-14T15:00:06.409Z,1.35
2023-11-14T15:02:33.287Z,1.32
2023-11-14T15:05:00.205Z,1.14
2023-11-14T15:08:00.272Z,0.85
2023-11-14T15:10:27.079Z,0.67
2023-11-14T15:12:53.861Z,0.87
2023-11-14T15:15:20.694Z,1.14
2023-11-14T15:17:47.467Z,1.03
2023-11-14T15:20:15.043Z,0.94
2023-11-14T15:22:42.028Z,0.89
2023-11-14T15:25:11.695Z,0.70
2023-11-14T15:28:14.421Z,0.57
2023-11-14T15:30:41.164Z,0.60
2023-11-14T15:33:08.953Z,0.78
2023-11-14T15:35:36.248Z,0.89
2023-11-14T15:38:03.449Z,0.72
2023-11-14T15:40:30.277Z,1.09
2023-11-14T15:42:57.505Z,1.19
2023-11-14T15:45:24.510Z,1.33
2023-11-14T15:47:51.239Z,1.19
2023-11-14T15:50:18.682Z,0.79
2023-11-14T15:52:46.245Z,1.16
2023-11-14T15:55:13.279Z,1.68
2023-11-14T15:57:40.443Z,5.85
2023-11-14T16:00:09.401Z,6.87
2023-11-14T16:02:37.287Z,4.41
2023-11-14T16:05:05.378Z,3.66
2023-11-14T16:07:34.657Z,3.56
2023-11-14T16:10:02.305Z,2.68
2023-11-14T16:12:31.903Z,1.98
2023-11-14T16:14:59.503Z,2.17
2023-11-14T16:17:40.581Z,1.66
2023-11-14T16:20:08.699Z,1.40
2023-11-14T16:22:35.999Z,1.46
2023-11-14T16:25:03.672Z,1.30
2023-11-14T16:27:30.468Z,1.27
2023-11-14T16:29:57.258Z,1.03
2023-11-14T16:32:32.155Z,1.03
2023-11-14T16:34:59.065Z,0.67
2023-11-14T16:37:25.908Z,0.68
2023-11-14T16:39:52.759Z,0.73
2023-11-14T16:42:19.979Z,0.80
2023-11-14T16:44:47.142Z,0.52
2023-11-14T16:47:14.158Z,0.73
2023-11-14T16:49:41.457Z,1.65
2023-11-14T16:52:08.542Z,0.85
2023-11-14T16:54:35.383Z,0.47
2023-11-14T16:57:02.457Z,0.45
2023-11-14T16:59:29.266Z,0.50
2023-11-14T17:01:56.464Z,0.54
2023-11-14T17:04:24.639Z,0.54
2023-11-14T17:06:52.170Z,0.48
2023-11-14T17:09:19.698Z,0.51
2023-11-14T17:11:47.002Z,0.36
2023-11-14T17:14:14.194Z,0.43
2023-11-14T17:16:41.063Z,0.48
2023-11-14T17:19:09.581Z,0.41
2023-11-14T17:21:39.953Z,0.50
2023-11-14T17:24:07.754Z,0.57
2023-11-14T17:26:35.671Z,0.51
2023-11-14T17:29:35.735Z,0.54
2023-11-14T17:32:02.984Z,0.37
2023-11-14T17:34:30.318Z,0.51
2023-11-14T17:36:57.064Z,1.66
2023-11-14T17:39:24.412Z,0.66
2023-11-14T17:41:51.686Z,0.79
2023-11-14T17:44:19.000Z,0.59
2023-11-14T17:46:46.006Z,0.81
2023-11-14T17:49:13.294Z,0.81
2023-11-14T17:51:40.930Z,1.08
2023-11-14T17:54:07.890Z,0.73
2023-11-14T17:56:34.859Z,0.52
2023-11-14T17:59:02.450Z,0.77
2023-11-14T18:01:29.273Z,0.56
2023-11-14T18:03:56.344Z,0.55
2023-11-14T18:06:23.380Z,0.55
2023-11-14T18:08:51.749Z,0.48
2023-11-14T18:11:19.074Z,0.70
2023-11-14T18:13:46.263Z,0.72
2023-11-14T18:16:14.542Z,3.44
2023-11-14T18:18:41.379Z,1.55
2023-11-14T18:21:08.388Z,0.89
2023-11-14T18:23:35.279Z,1.46
2023-11-14T18:26:02.391Z,0.80
2023-11-14T18:28:29.242Z,0.76
2023-11-14T18:30:56.282Z,0.82
2023-11-14T18:34:01.324Z,0.77
2023-11-14T18:36:28.150Z,0.87
2023-11-14T18:38:54.954Z,0.65
2023-11-14T18:41:21.741Z,0.71
2023-11-14T18:43:49.378Z,0.91
2023-11-14T18:46:16.667Z,0.62
2023-11-14T18:48:43.541Z,0.60
2023-11-14T18:51:10.823Z,0.72
2023-11-14T18:53:37.632Z,1.28
2023-11-14T18:56:06.296Z,1.98
2023-11-14T18:58:33.199Z,1.00
2023-11-14T19:00:59.920Z,0.66
2023-11-14T19:03:27.232Z,0.68
2023-11-14T19:05:54.544Z,0.54
2023-11-14T19:08:21.353Z,0.75
2023-11-14T19:10:48.447Z,0.92
2023-11-14T19:13:15.421Z,1.02
2023-11-14T19:15:42.689Z,0.77
2023-11-14T19:18:09.570Z,0.87
2023-11-14T19:20:36.467Z,1.19
2023-11-14T19:23:40.081Z,1.09
2023-11-14T19:25:50.592Z,1.58
2023-11-14T19:28:17.763Z,1.11
2023-11-14T19:30:45.338Z,0.69
2023-11-14T19:33:12.215Z,0.55
2023-11-14T19:35:39.160Z,2.54
2023-11-14T19:38:06.022Z,1.42
2023-11-14T19:40:32.777Z,1.09
2023-11-14T19:43:24.374Z,2.09
2023-11-14T19:45:51.582Z,0.85
2023-11-14T19:48:19.051Z,0.66
2023-11-14T19:50:46.244Z,0.83
2023-11-14T19:53:13.365Z,0.62
2023-11-14T19:55:40.095Z,0.62
2023-11-14T19:58:07.224Z,0.70
2023-11-14T20:00:34.181Z,0.73
2023-11-14T20:03:01.581Z,0.88
2023-11-14T20:05:28.412Z,0.73
2023-11-14T20:07:55.205Z,0.76
2023-11-14T20:10:22.083Z,0.45
2023-11-14T20:12:49.945Z,0.50
2023-11-14T20:15:17.354Z,0.63
2023-11-14T20:17:44.307Z,0.60
2023-11-14T20:20:11.765Z,0.51
2023-11-14T20:22:39.775Z,0.64
2023-11-14T20:25:07.580Z,0.70
2023-11-14T20:27:34.784Z,0.86
2023-11-14T20:30:02.348Z,0.77
2023-11-14T20:32:29.812Z,0.69
2023-11-14T20:34:57.109Z,0.58
2023-11-14T20:37:24.504Z,0.96
2023-11-14T20:39:51.228Z,1.79
2023-11-14T20:42:18.066Z,0.92
2023-11-14T20:44:44.877Z,0.71
2023-11-14T20:47:11.706Z,0.82
2023-11-14T20:49:38.556Z,1.81
2023-11-14T20:52:05.658Z,1.33
2023-11-14T20:54:32.811Z,0.93
2023-11-14T20:56:59.856Z,0.81
2023-11-14T20:59:27.146Z,0.79
2023-11-14T21:01:54.231Z,0.78
2023-11-14T21:04:21.704Z,0.65
2023-11-14T21:06:48.623Z,0.80
2023-11-14T21:09:15.711Z,1.42
2023-11-14T21:11:43.136Z,2.74
2023-11-14T21:14:10.068Z,1.67
2023-11-14T21:16:37.952Z,0.90
2023-11-14T21:19:05.266Z,0.55
2023-11-14T21:21:32.177Z,0.71
2023-11-14T21:23:59.142Z,0.69
2023-11-14T21:26:25.960Z,0.77
2023-11-14T21:28:53.014Z,0.69
2023-11-14T21:31:19.811Z,0.72
2023-11-14T21:33:46.996Z,0.98
2023-11-14T21:36:13.732Z,0.87
2023-11-14T21:38:40.968Z,0.97
2023-11-14T21:41:08.217Z,0.89
2023-11-14T21:43:35.117Z,0.96
2023-11-14T21:46:01.914Z,0.75
2023-11-14T21:48:29.073Z,0.94
2023-11-14T21:50:55.823Z,0.98
2023-11-14T21:53:23.015Z,1.40
2023-11-14T21:55:50.031Z,1.29
2023-11-14T21:58:17.879Z,1.45
2023-11-14T22:00:44.756Z,1.09
2023-11-14T22:03:11.617Z,0.85
2023-11-14T22:05:38.470Z,0.76
2023-11-14T22:08:06.305Z,0.82
2023-11-14T22:10:33.117Z,0.82
2023-11-14T22:12:59.917Z,0.89
2023-11-14T22:15:36.972Z,0.78
2023-11-14T22:18:04.183Z,0.78
2023-11-14T22:20:30.955Z,0.71
2023-11-14T22:22:57.794Z,0.65
2023-11-14T22:25:25.174Z,0.65
2023-11-14T22:27:52.026Z,0.68
2023-11-14T22:30:18.768Z,0.56
2023-11-14T22:32:45.570Z,0.66
2023-11-14T22:35:12.302Z,0.76
2023-11-14T22:37:39.299Z,0.68
2023-11-14T22:40:06.655Z,0.66
2023-11-14T22:42:33.655Z,0.61
2023-11-14T22:45:00.811Z,0.55
2023-11-14T22:47:38.002Z,0.59
2023-11-14T22:50:05.175Z,0.47
2023-11-14T22:52:31.927Z,0.43
2023-11-14T22:55:06.253Z,0.45
2023-11-14T22:57:33.886Z,0.49
2023-11-14T23:00:01.156Z,0.42
2023-11-14T23:02:27.945Z,0.45
2023-11-14T23:04:55.008Z,0.51
2023-11-14T23:07:22.086Z,0.58
2023-11-14T23:09:49.168Z,0.63
2023-11-14T23:12:16.425Z,0.45
2023-11-14T23:14:43.198Z,0.45
2023-11-14T23:17:28.587Z,0.53
2023-11-14T23:19:55.440Z,0.64
2023-11-14T23:22:22.161Z,0.64
2023-11-14T23:24:48.938Z,0.50
2023-11-14T23:27:15.716Z,0.55
2023-11-14T23:29:42.556Z,0.52
2023-11-14T23:32:09.655Z,0.55
2023-11-14T23:34:36.811Z,0.52
2023-11-14T23:37:03.544Z,0.54
2023-11-14T23:39:30.740Z,0.52
2023-11-14T23:41:57.576Z,0.50
2023-11-14T23:44:24.413Z,0.61
2023-11-14T23:46:51.193Z,0.58
2023-11-14T23:49:18.013Z,0.53
2023-11-14T23:51:44.988Z,0.62
2023-11-14T23:54:11.759Z,0.59
2023-11-14T23:56:38.617Z,0.76
2023-11-14T23:59:05.429Z,0.68
